Time,TemperatureF,DewpointF,PressureIn,WindDirection,WindDirectionDegrees,WindSpeedMPH,WindSpeedGustMPH,Humidity,HourlyPrecipIn,Conditions,Clouds,dailyrainin,SoftwareType,DateUTC
2013-04-06 00:00:00,54.7,32.0,30.78,WSW,242,6.0,6.0,36,0.00,PR,BKN,0.00,Misterhouse,2013-04-06 07:00:00,
2013-04-06 00:05:00,54.7,32.0,30.78,SSW,206,8.0,15.0,37,0.00,PR,BKN,0.00,Misterhouse,2013-04-06 07:05:00,
2013-04-06 00:15:00,55.2,32.0,30.78,SSW,210,11.0,15.0,39,0.00,PR,BKN,0.00,Misterhouse,2013-04-06 07:15:00,
2013-04-06 00:25:00,55.2,32.0,30.78,SW,228,7.0,7.0,40,0.00,PR,BKN,0.00,Misterhouse,2013-04-06 07:25:00,
2013-04-06 00:30:00,55.2,32.0,30.78,WSW,251,9.0,9.0,40,0.00,PR,BKN,0.00,Misterhouse,2013-04-06 07:30:00,
2013-04-06 00:40:00,55.2,32.0,30.78,SSW,200,9.0,9.0,40,0.00,PR,BKN,0.00,Misterhouse,2013-04-06 07:40:00,
2013-04-06 00:45:00,55.2,32.0,30.78,West,263,8.0,11.0,40,0.00,PR,BKN,0.00,Misterhouse,2013-04-06 07:45:00,
2013-04-06 00:55:00,55.4,32.0,30.78,West,264,8.0,8.0,41,0.00,PR,BKN,0.00,Misterhouse,2013-04-06 07:55:00,
2013-04-06 01:00:00,55.6,32.0,30.78,WSW,252,9.0,11.0,40,0.00,PR,BKN,0.00,Misterhouse,2013-04-06 08:00:00,
2013-04-06 01:10:00,55.4,32.0,30.75,SW,231,8.0,8.0,39,0.00,PR,BKN,0.00,Misterhouse,2013-04-06 08:10:00,
2013-04-06 01:15:00,55.6,32.0,30.75,WSW,256,9.0,9.0,39,0.00,PR,BKN,0.00,Misterhouse,2013-04-06 08:15:00,
2013-04-06 01:20:00,55.4,32.0,30.75,WNW,295,9.0,9.0,38,0.00,PR,BKN,0.00,Misterhouse,2013-04-06 08:20:00,
2013-04-06 01:25:00,55.8,32.0,30.75,West,272,12.0,12.0,38,0.00,PR,BKN,0.00,Misterhouse,2013-04-06 08:25:00,
2013-04-06 01:30:00,55.4,32.0,30.75,West,275,8.0,10.0,38,0.00,PR,BKN,0.00,Misterhouse,2013-04-06 08:30:00,
2013-04-06 01:35:00,55.4,32.0,30.75,WSW,249,8.0,8.0,39,0.00,PR,BKN,0.00,Misterhouse,2013-04-06 08:35:00,
2013-04-06 01:40:00,55.2,32.0,30.75,West,259,7.0,7.0,39,0.00,PR,BKN,0.00,Misterhouse,2013-04-06 08:40:00,
2013-04-06 01:45:00,55.2,32.0,30.75,SW,232,7.0,7.0,38,0.00,PR,BKN,0.00,Misterhouse,2013-04-06 08:45:00,
2013-04-06 01:50:00,55.0,32.0,30.75,West,277,9.0,9.0,39,0.00,PR,BKN,0.00,Misterhouse,2013-04-06 08:50:00,
2013-04-06 01:55:00,55.2,32.0,30.75,West,267,7.0,7.0,39,0.00,PR,BKN,0.00,Misterhouse,2013-04-06 08:55:00,
2013-04-06 02:00:00,55.0,32.0,30.75,West,278,11.0,13.0,41,0.00,PR,BKN,0.00,Misterhouse,2013-04-06 09:00:00,
2013-04-06 02:05:00,55.2,33.8,30.75,WSW,250,12.0,15.0,45,0.00,PR,BKN,0.00,Misterhouse,2013-04-06 09:05:00,
2013-04-06 02:10:00,55.2,35.6,30.75,West,274,14.0,14.0,46,0.00,PR,BKN,0.00,Misterhouse,2013-04-06 09:10:00,
2013-04-06 02:20:00,55.2,35.6,30.75,NW,308,13.0,14.0,47,0.00,PR,BKN,0.00,Misterhouse,2013-04-06 09:20:00,
2013-04-06 02:25:00,55.2,35.6,30.75,West,279,10.0,10.0,46,0.00,PR,BKN,0.00,Misterhouse,2013-04-06 09:25:00,
2013-04-06 02:30:00,55.4,33.8,30.75,West,264,14.0,14.0,44,0.00,PR,BKN,0.00,Misterhouse,2013-04-06 09:30:00,
2013-04-06 02:35:00,55.2,32.0,30.75,West,275,13.0,13.0,40,0.00,PR,BKN,0.00,Misterhouse,2013-04-06 09:35:00,
2013-04-06 02:40:00,55.2,32.0,30.75,WSW,247,8.0,11.0,39,0.00,PR,BKN,0.00,Misterhouse,2013-04-06 09:40:00,
2013-04-06 02:45:00,55.0,32.0,30.75,West,265,9.0,9.0,38,0.00,PR,BKN,0.00,Misterhouse,2013-04-06 09:45:00,
2013-04-06 02:55:00,55.2,32.0,30.72,West,266,12.0,12.0,37,0.00,PR,BKN,0.00,Misterhouse,2013-04-06 09:55:00,
2013-04-06 03:00:00,55.2,32.0,30.72,WNW,282,7.0,11.0,36,0.00,PR,BKN,0.00,Misterhouse,2013-04-06 10:00:00,
2013-04-06 03:10:00,55.4,32.0,30.75,WSW,248,16.0,16.0,35,0.00,PR,BKN,0.00,Misterhouse,2013-04-06 10:10:00,
2013-04-06 03:20:00,55.2,32.0,30.75,WSW,256,15.0,15.0,36,0.00,PR,BKN,0.00,Misterhouse,2013-04-06 10:20:00,
2013-04-06 03:30:00,54.9,32.0,30.75,WSW,241,9.0,11.0,36,0.00,PR,BKN,0.00,Misterhouse,2013-04-06 10:30:00,
2013-04-06 03:35:00,54.7,32.0,30.75,WSW,247,16.0,16.0,36,0.00,PR,BKN,0.00,Misterhouse,2013-04-06 10:35:00,
2013-04-06 03:40:00,54.5,32.0,30.75,WSW,252,9.0,16.0,38,0.00,PR,BKN,0.00,Misterhouse,2013-04-06 10:40:00,
2013-04-06 03:45:00,54.3,32.0,30.75,WSW,249,10.0,11.0,38,0.00,PR,BKN,0.00,Misterhouse,2013-04-06 10:45:00,
2013-04-06 03:55:00,54.1,32.0,30.75,SW,230,11.0,11.0,39,0.00,PR,BKN,0.00,Misterhouse,2013-04-06 10:55:00,
2013-04-06 04:00:00,54.0,32.0,30.75,WSW,237,10.0,11.0,41,0.00,PR,BKN,0.00,Misterhouse,2013-04-06 11:00:00,
2013-04-06 04:10:00,54.0,32.0,30.75,WSW,249,12.0,13.0,42,0.00,PR,BKN,0.00,Misterhouse,2013-04-06 11:10:00,
2013-04-06 04:15:00,53.8,32.0,30.75,West,273,14.0,15.0,45,0.00,PR,BKN,0.00,Misterhouse,2013-04-06 11:15:00,
2013-04-06 04:20:00,53.6,32.0,30.75,SW,233,14.0,14.0,45,0.00,PR,BKN,0.00,Misterhouse,2013-04-06 11:20:00,
2013-04-06 04:25:00,53.6,32.0,30.75,West,273,14.0,14.0,45,0.00,PR,BKN,0.00,Misterhouse,2013-04-06 11:25:00,
2013-04-06 04:30:00,53.6,33.8,30.75,West,259,13.0,13.0,46,0.00,PR,BKN,0.00,Misterhouse,2013-04-06 11:30:00,
2013-04-06 04:35:00,53.4,33.8,30.75,West,263,14.0,14.0,46,0.00,PR,BKN,0.00,Misterhouse,2013-04-06 11:35:00,
2013-04-06 04:40:00,53.4,33.8,30.75,WSW,249,12.0,12.0,47,0.00,PR,BKN,0.00,Misterhouse,2013-04-06 11:40:00,
2013-04-06 04:45:00,53.4,35.6,30.75,WSW,246,13.0,16.0,49,0.00,PR,BKN,0.00,Misterhouse,2013-04-06 11:45:00,
2013-04-06 04:50:00,53.2,35.6,30.75,WSW,258,13.0,13.0,51,0.00,PR,BKN,0.00,Misterhouse,2013-04-06 11:50:00,
2013-04-06 04:55:00,53.1,35.6,30.75,West,281,18.0,21.0,50,0.00,PR,BKN,0.00,Misterhouse,2013-04-06 11:55:00,
2013-04-06 05:00:00,53.1,35.6,30.75,West,275,9.0,14.0,49,0.00,PR,BKN,0.00,Misterhouse,2013-04-06 12:00:00,
2013-04-06 05:10:00,53.1,35.6,30.75,West,265,17.0,17.0,50,0.00,PR,BKN,0.00,Misterhouse,2013-04-06 12:10:00,
2013-04-06 05:15:00,53.1,35.6,30.75,WSW,252,12.0,12.0,49,0.00,PR,BKN,0.00,Misterhouse,2013-04-06 12:15:00,
2013-04-06 05:20:00,53.1,35.6,30.75,West,280,15.0,15.0,49,0.00,PR,BKN,0.00,Misterhouse,2013-04-06 12:20:00,
2013-04-06 05:30:00,52.9,35.6,30.75,West,275,17.0,20.0,50,0.00,PR,BKN,0.00,Misterhouse,2013-04-06 12:30:00,
2013-04-06 05:35:00,52.9,35.6,30.75,West,275,10.0,13.0,49,0.00,PR,BKN,0.00,Misterhouse,2013-04-06 12:35:00,
2013-04-06 05:40:00,52.9,33.8,30.75,WSW,241,14.0,17.0,47,0.00,PR,BKN,0.00,Misterhouse,2013-04-06 12:40:00,
2013-04-06 05:45:00,52.7,32.0,30.75,WSW,243,11.0,13.0,45,0.00,PR,BKN,0.00,Misterhouse,2013-04-06 12:45:00,
2013-04-06 05:50:00,52.5,32.0,30.75,WSW,256,11.0,11.0,46,0.00,PR,BKN,0.00,Misterhouse,2013-04-06 12:50:00,
2013-04-06 05:55:00,52.5,32.0,30.75,West,275,11.0,11.0,45,0.00,PR,BKN,0.00,Misterhouse,2013-04-06 12:55:00,
2013-04-06 06:00:00,52.3,32.0,30.75,WSW,250,11.0,13.0,47,0.00,PR,BKN,0.00,Misterhouse,2013-04-06 13:00:00,
2013-04-06 06:10:00,52.5,32.0,30.75,West,267,12.0,13.0,44,0.00,PR,BKN,0.00,Misterhouse,2013-04-06 13:10:00,
2013-04-06 06:20:00,52.5,32.0,30.75,WNW,291,20.0,20.0,44,0.00,PR,BKN,0.00,Misterhouse,2013-04-06 13:20:00,
2013-04-06 06:25:00,52.5,32.0,30.75,West,277,14.0,17.0,45,0.00,PR,BKN,0.00,Misterhouse,2013-04-06 13:25:00,
2013-04-06 06:30:00,52.5,32.0,30.75,WSW,241,12.0,13.0,44,0.00,PR,BKN,0.00,Misterhouse,2013-04-06 13:30:00,
2013-04-06 06:40:00,52.3,32.0,30.75,WNW,284,15.0,15.0,45,0.00,PR,BKN,0.00,Misterhouse,2013-04-06 13:40:00,
2013-04-06 06:45:00,52.5,32.0,30.75,West,264,17.0,21.0,45,0.00,PR,BKN,0.00,Misterhouse,2013-04-06 13:45:00,
2013-04-06 06:50:00,52.5,32.0,30.75,West,277,11.0,15.0,45,0.00,PR,BKN,0.00,Misterhouse,2013-04-06 13:50:00,
2013-04-06 06:55:00,52.7,32.0,30.78,West,260,11.0,16.0,45,0.00,PR,BKN,0.00,Misterhouse,2013-04-06 13:55:00,
2013-04-06 07:00:00,52.9,33.8,30.78,SW,214,15.0,16.0,46,0.00,PR,BKN,0.00,Misterhouse,2013-04-06 14:00:00,
2013-04-06 07:10:00,52.9,32.0,30.78,WSW,251,12.0,14.0,45,0.00,PR,BKN,0.00,Misterhouse,2013-04-06 14:10:00,
2013-04-06 07:15:00,52.9,32.0,30.78,WSW,248,14.0,14.0,44,0.00,PR,BKN,0.00,Misterhouse,2013-04-06 14:15:00,
2013-04-06 07:20:00,53.1,32.0,30.78,West,261,12.0,12.0,44,0.00,PR,BKN,0.00,Misterhouse,2013-04-06 14:20:00,
2013-04-06 07:30:00,53.1,32.0,30.78,WSW,244,12.0,12.0,42,0.00,PR,BKN,0.00,Misterhouse,2013-04-06 14:30:00,
2013-04-06 07:35:00,53.2,32.0,30.78,WNW,292,14.0,15.0,40,0.00,PR,BKN,0.00,Misterhouse,2013-04-06 14:35:00,
2013-04-06 07:40:00,53.2,32.0,30.78,South,185,13.0,13.0,41,0.00,PR,BKN,0.00,Misterhouse,2013-04-06 14:40:00,
2013-04-06 07:45:00,53.4,32.0,30.78,WSW,251,14.0,15.0,39,0.00,PR,BKN,0.00,Misterhouse,2013-04-06 14:45:00,
2013-04-06 07:55:00,53.6,32.0,30.78,West,276,10.0,13.0,38,0.00,PR,BKN,0.00,Misterhouse,2013-04-06 14:55:00,
2013-04-06 08:00:00,53.8,32.0,30.78,WNW,295,11.0,11.0,38,0.00,PR,BKN,0.00,Misterhouse,2013-04-06 15:00:00,
2013-04-06 08:05:00,54.0,32.0,30.78,WNW,283,13.0,13.0,38,0.00,PR,BKN,0.00,Misterhouse,2013-04-06 15:05:00,
2013-04-06 08:15:00,54.1,32.0,30.78,West,278,14.0,17.0,37,0.00,PR,BKN,0.00,Misterhouse,2013-04-06 15:15:00,
2013-04-06 08:20:00,54.5,32.0,30.78,WSW,241,8.0,8.0,35,0.00,PR,BKN,0.00,Misterhouse,2013-04-06 15:20:00,
2013-04-06 08:25:00,54.9,32.0,30.78,WSW,244,12.0,12.0,33,0.00,PR,BKN,0.00,Misterhouse,2013-04-06 15:25:00,
2013-04-06 08:35:00,55.6,32.0,30.78,SW,233,12.0,12.0,29,0.00,PR,BKN,0.00,Misterhouse,2013-04-06 15:35:00,
2013-04-06 08:40:00,55.6,32.0,30.78,West,277,9.0,9.0,29,0.00,PR,BKN,0.00,Misterhouse,2013-04-06 15:40:00,
2013-04-06 08:45:00,55.6,32.0,30.78,SW,233,9.0,9.0,28,0.00,PR,BKN,0.00,Misterhouse,2013-04-06 15:45:00,
2013-04-06 08:50:00,56.1,32.0,30.78,WNW,283,11.0,11.0,27,0.00,PR,BKN,0.00,Misterhouse,2013-04-06 15:50:00,
2013-04-06 08:55:00,56.7,32.0,30.78,NW,311,9.0,13.0,26,0.00,PR,BKN,0.00,Misterhouse,2013-04-06 15:55:00,
2013-04-06 09:00:00,57.0,32.0,30.78,NNW,327,8.0,8.0,26,0.00,PR,BKN,0.00,Misterhouse,2013-04-06 16:00:00,
2013-04-06 09:10:00,58.3,32.0,30.78,NW,323,8.0,8.0,19,0.00,PR,BKN,0.00,Misterhouse,2013-04-06 16:10:00,
2013-04-06 09:20:00,58.8,32.0,30.78,NW,305,9.0,9.0,17,0.00,PR,BKN,0.00,Misterhouse,2013-04-06 16:20:00,
2013-04-06 09:30:00,59.9,32.0,30.81,WNW,290,11.0,11.0,17,0.00,PR,BKN,0.00,Misterhouse,2013-04-06 16:30:00,
2013-04-06 09:35:00,59.7,32.0,30.81,NNW,340,4.0,6.0,17,0.00,PR,BKN,0.00,Misterhouse,2013-04-06 16:35:00,
2013-04-06 09:40:00,60.3,32.0,30.81,WNW,301,9.0,9.0,14,0.00,PR,BKN,0.00,Misterhouse,2013-04-06 16:40:00,
2013-04-06 09:45:00,60.4,32.0,30.81,WNW,291,6.0,6.0,14,0.00,PR,BKN,0.00,Misterhouse,2013-04-06 16:45:00,
2013-04-06 09:50:00,60.6,32.0,30.81,NNW,345,8.0,11.0,14,0.00,PR,BKN,0.00,Misterhouse,2013-04-06 16:50:00,
2013-04-06 10:00:00,61.9,32.0,30.78,West,268,10.0,12.0,14,0.00,PR,BKN,0.00,Misterhouse,2013-04-06 17:00:00,
2013-04-06 10:10:00,61.3,32.0,30.81,WNW,292,16.0,19.0,14,0.00,PR,BKN,0.00,Misterhouse,2013-04-06 17:10:00,
2013-04-06 10:15:00,60.1,32.0,30.81,WNW,295,12.0,15.0,14,0.00,PR,BKN,0.00,Misterhouse,2013-04-06 17:15:00,
2013-04-06 10:20:00,60.4,32.0,30.81,West,267,10.0,15.0,14,0.00,PR,BKN,0.00,Misterhouse,2013-04-06 17:20:00,
2013-04-06 10:30:00,61.3,32.0,30.81,WNW,301,11.0,12.0,14,0.00,PR,BKN,0.00,Misterhouse,2013-04-06 17:30:00,
2013-04-06 10:40:00,60.8,32.0,30.81,WNW,289,12.0,12.0,14,0.00,PR,BKN,0.00,Misterhouse,2013-04-06 17:40:00,
2013-04-06 10:45:00,60.6,32.0,30.81,NW,305,10.0,10.0,14,0.00,PR,BKN,0.00,Misterhouse,2013-04-06 17:45:00,
2013-04-06 10:50:00,61.0,32.0,30.81,WNW,287,7.0,8.0,14,0.00,PR,BKN,0.00,Misterhouse,2013-04-06 17:50:00,
2013-04-06 10:55:00,62.4,32.0,30.81,NW,319,10.0,11.0,14,0.00,PR,BKN,0.00,Misterhouse,2013-04-06 17:55:00,
2013-04-06 11:00:00,63.1,32.0,30.81,WNW,286,11.0,11.0,11,0.00,PR,BKN,0.00,Misterhouse,2013-04-06 18:00:00,
2013-04-06 11:10:00,63.7,32.0,30.78,WNW,295,10.0,10.0,13,0.00,PR,BKN,0.00,Misterhouse,2013-04-06 18:10:00,
2013-04-06 11:15:00,63.3,32.0,30.78,NW,309,15.0,15.0,13,0.00,PR,BKN,0.00,Misterhouse,2013-04-06 18:15:00,
2013-04-06 11:25:00,63.5,32.0,30.78,WNW,293,8.0,8.0,11,0.00,PR,BKN,0.00,Misterhouse,2013-04-06 18:25:00,
2013-04-06 11:30:00,63.9,32.0,30.78,WNW,284,8.0,8.0,11,0.00,PR,BKN,0.00,Misterhouse,2013-04-06 18:30:00,
2013-04-06 11:35:00,63.1,32.0,30.78,WSW,237,8.0,8.0,11,0.00,PR,BKN,0.00,Misterhouse,2013-04-06 18:35:00,
2013-04-06 11:45:00,64.2,32.0,30.78,WSW,253,4.0,4.0,11,0.00,PR,BKN,0.00,Misterhouse,2013-04-06 18:45:00,
2013-04-06 11:50:00,64.8,32.0,30.78,WNW,303,6.0,6.0,10,0.00,PR,BKN,0.00,Misterhouse,2013-04-06 18:50:00,
2013-04-06 11:55:00,65.3,32.0,30.78,SW,235,6.0,6.0,10,0.00,PR,BKN,0.00,Misterhouse,2013-04-06 18:55:00,
2013-04-06 12:00:00,66.0,32.0,30.78,SSW,205,3.0,3.0,10,0.00,PR,BKN,0.00,Misterhouse,2013-04-06 19:00:00,
2013-04-06 12:10:00,66.2,32.0,30.78,West,271,4.0,4.0,10,0.00,PR,BKN,0.00,Misterhouse,2013-04-06 19:10:00,
2013-04-06 12:15:00,67.3,32.0,30.78,WNW,297,3.0,4.0,10,0.00,PR,BKN,0.00,Misterhouse,2013-04-06 19:15:00,
2013-04-06 12:20:00,67.5,32.0,30.78,SSW,201,6.0,6.0,10,0.00,PR,BKN,0.00,Misterhouse,2013-04-06 19:20:00,
2013-04-06 12:25:00,67.6,32.0,30.78,SW,221,4.0,5.0,10,0.00,PR,BKN,0.00,Misterhouse,2013-04-06 19:25:00,
2013-04-06 12:30:00,67.8,32.0,30.78,SSE,162,8.0,8.0,10,0.00,PR,BKN,0.00,Misterhouse,2013-04-06 19:30:00,
2013-04-06 12:40:00,69.4,32.0,30.78,East,82,5.0,6.0,12,0.00,PR,BKN,0.00,Misterhouse,2013-04-06 19:40:00,
2013-04-06 12:50:00,70.0,32.0,30.78,NW,304,9.0,9.0,9,0.00,PR,BKN,0.00,Misterhouse,2013-04-06 19:50:00,
2013-04-06 12:55:00,70.5,32.0,30.75,WSW,248,6.0,8.0,9,0.00,PR,BKN,0.00,Misterhouse,2013-04-06 19:55:00,
2013-04-06 13:00:00,69.4,32.0,30.75,West,273,12.0,12.0,10,0.00,PR,BKN,0.00,Misterhouse,2013-04-06 20:00:00,
2013-04-06 13:10:00,68.2,32.0,30.75,WNW,299,13.0,13.0,10,0.00,PR,BKN,0.00,Misterhouse,2013-04-06 20:10:00,
2013-04-06 13:15:00,68.9,32.0,30.75,WNW,288,11.0,11.0,10,0.00,PR,BKN,0.00,Misterhouse,2013-04-06 20:15:00,
2013-04-06 13:20:00,68.5,32.0,30.75,WNW,283,9.0,9.0,10,0.00,PR,BKN,0.00,Misterhouse,2013-04-06 20:20:00,
2013-04-06 13:25:00,69.6,32.0,30.75,West,276,11.0,13.0,10,0.00,PR,BKN,0.00,Misterhouse,2013-04-06 20:25:00,
2013-04-06 13:30:00,69.1,32.0,30.75,WSW,255,12.0,13.0,10,0.00,PR,BKN,0.00,Misterhouse,2013-04-06 20:30:00,
2013-04-06 13:35:00,68.7,32.0,30.75,West,273,12.0,14.0,10,0.00,PR,BKN,0.00,Misterhouse,2013-04-06 20:35:00,
2013-04-06 13:40:00,68.2,32.0,30.75,WNW,289,9.0,9.0,10,0.00,PR,BKN,0.00,Misterhouse,2013-04-06 20:40:00,
2013-04-06 13:45:00,68.0,32.0,30.75,West,278,10.0,15.0,10,0.00,PR,BKN,0.00,Misterhouse,2013-04-06 20:45:00,
2013-04-06 13:50:00,67.5,32.0,30.75,West,262,12.0,12.0,10,0.00,PR,BKN,0.00,Misterhouse,2013-04-06 20:50:00,
2013-04-06 14:00:00,69.3,32.0,30.75,West,269,11.0,16.0,10,0.00,PR,BKN,0.00,Misterhouse,2013-04-06 21:00:00,
2013-04-06 14:10:00,69.6,32.0,30.75,West,275,6.0,6.0,10,0.00,PR,BKN,0.00,Misterhouse,2013-04-06 21:10:00,
2013-04-06 14:15:00,69.8,32.0,30.75,West,264,8.0,9.0,9,0.00,PR,BKN,0.00,Misterhouse,2013-04-06 21:15:00,
2013-04-06 14:20:00,68.7,32.0,30.75,SW,228,9.0,9.0,10,0.00,PR,BKN,0.00,Misterhouse,2013-04-06 21:20:00,
2013-04-06 14:25:00,69.8,32.0,30.75,NW,305,8.0,8.0,9,0.00,PR,BKN,0.00,Misterhouse,2013-04-06 21:25:00,
2013-04-06 14:35:00,70.2,32.0,30.75,WNW,285,10.0,10.0,9,0.00,PR,BKN,0.00,Misterhouse,2013-04-06 21:35:00,
2013-04-06 14:40:00,70.2,32.0,30.72,WSW,243,11.0,15.0,9,0.00,PR,BKN,0.00,Misterhouse,2013-04-06 21:40:00,
2013-04-06 14:45:00,69.6,32.0,30.72,WNW,293,12.0,12.0,10,0.00,PR,BKN,0.00,Misterhouse,2013-04-06 21:45:00,
2013-04-06 14:55:00,68.7,32.0,30.72,WSW,248,17.0,17.0,10,0.00,PR,BKN,0.00,Misterhouse,2013-04-06 21:55:00,
2013-04-06 15:00:00,69.6,32.0,30.72,WSW,249,9.0,11.0,10,0.00,PR,BKN,0.00,Misterhouse,2013-04-06 22:00:00,
2013-04-06 15:10:00,68.0,32.0,30.72,WNW,292,19.0,24.0,10,0.00,PR,BKN,0.00,Misterhouse,2013-04-06 22:10:00,
2013-04-06 15:15:00,68.5,32.0,30.72,West,261,11.0,11.0,10,0.00,PR,BKN,0.00,Misterhouse,2013-04-06 22:15:00,
2013-04-06 15:20:00,68.5,32.0,30.72,WNW,292,12.0,12.0,10,0.00,PR,BKN,0.00,Misterhouse,2013-04-06 22:20:00,
2013-04-06 15:30:00,67.1,32.0,30.75,WNW,283,13.0,17.0,10,0.00,PR,BKN,0.00,Misterhouse,2013-04-06 22:30:00,
2013-04-06 15:35:00,66.7,32.0,30.75,WSW,257,9.0,9.0,10,0.00,PR,BKN,0.00,Misterhouse,2013-04-06 22:35:00,
2013-04-06 15:40:00,66.6,32.0,30.75,WSW,248,15.0,15.0,10,0.00,PR,BKN,0.00,Misterhouse,2013-04-06 22:40:00,
2013-04-06 15:45:00,66.9,32.0,30.75,West,259,8.0,11.0,10,0.00,PR,BKN,0.00,Misterhouse,2013-04-06 22:45:00,
2013-04-06 15:55:00,64.8,32.0,30.75,WNW,284,15.0,15.0,10,0.00,PR,BKN,0.00,Misterhouse,2013-04-06 22:55:00,
2013-04-06 16:00:00,65.1,32.0,30.75,West,268,15.0,15.0,10,0.00,PR,BKN,0.00,Misterhouse,2013-04-06 23:00:00,
2013-04-06 16:10:00,64.6,32.0,30.75,SW,227,12.0,12.0,10,0.00,PR,BKN,0.00,Misterhouse,2013-04-06 23:10:00,
2013-04-06 16:15:00,65.3,32.0,30.75,West,271,11.0,12.0,10,0.00,PR,BKN,0.00,Misterhouse,2013-04-06 23:15:00,
2013-04-06 16:20:00,64.6,32.0,30.75,West,272,11.0,11.0,10,0.00,PR,BKN,0.00,Misterhouse,2013-04-06 23:20:00,
2013-04-06 16:25:00,63.1,32.0,30.75,WNW,291,16.0,21.0,11,0.00,PR,BKN,0.00,Misterhouse,2013-04-06 23:25:00,
2013-04-06 16:30:00,62.8,32.0,30.75,WSW,250,11.0,11.0,11,0.00,PR,BKN,0.00,Misterhouse,2013-04-06 23:30:00,
2013-04-06 16:35:00,64.2,32.0,30.75,WSW,248,8.0,8.0,11,0.00,PR,BKN,0.00,Misterhouse,2013-04-06 23:35:00,
2013-04-06 16:40:00,64.6,32.0,30.72,WSW,238,11.0,12.0,10,0.00,PR,BKN,0.00,Misterhouse,2013-04-06 23:40:00,
2013-04-06 16:45:00,65.5,32.0,30.72,West,274,6.0,8.0,10,0.00,PR,BKN,0.00,Misterhouse,2013-04-06 23:45:00,
2013-04-06 16:55:00,64.8,32.0,30.72,West,265,11.0,12.0,10,0.00,PR,BKN,0.00,Misterhouse,2013-04-06 23:55:00,
2013-04-06 17:05:00,63.1,32.0,30.72,West,267,14.0,14.0,11,0.00,PR,BKN,0.00,Misterhouse,2013-04-07 00:05:00,
2013-04-06 17:15:00,63.5,32.0,30.72,WSW,242,11.0,11.0,11,0.00,PR,BKN,0.00,Misterhouse,2013-04-07 00:15:00,
2013-04-06 17:25:00,64.0,32.0,30.72,WSW,249,16.0,16.0,11,0.00,PR,BKN,0.00,Misterhouse,2013-04-07 00:25:00,
2013-04-06 17:30:00,63.9,32.0,30.72,WSW,237,12.0,15.0,11,0.00,PR,BKN,0.00,Misterhouse,2013-04-07 00:30:00,
2013-04-06 17:40:00,63.5,32.0,30.72,WSW,253,11.0,11.0,11,0.00,PR,BKN,0.00,Misterhouse,2013-04-07 00:40:00,
2013-04-06 17:45:00,63.3,32.0,30.72,WSW,245,12.0,12.0,11,0.00,PR,BKN,0.00,Misterhouse,2013-04-07 00:45:00,
2013-04-06 17:50:00,64.2,32.0,30.72,WSW,243,5.0,6.0,11,0.00,PR,BKN,0.00,Misterhouse,2013-04-07 00:50:00,
2013-04-06 17:55:00,63.5,32.0,30.72,WSW,249,13.0,13.0,11,0.00,PR,BKN,0.00,Misterhouse,2013-04-07 00:55:00,
2013-04-06 18:00:00,62.8,32.0,30.72,WSW,250,11.0,13.0,11,0.00,PR,BKN,0.00,Misterhouse,2013-04-07 01:00:00,
2013-04-06 18:10:00,62.6,32.0,30.72,WSW,243,17.0,18.0,11,0.00,PR,BKN,0.00,Misterhouse,2013-04-07 01:10:00,
2013-04-06 18:20:00,62.6,32.0,30.72,WSW,250,20.0,20.0,11,0.00,PR,BKN,0.00,Misterhouse,2013-04-07 01:20:00,
2013-04-06 18:30:00,61.5,32.0,30.72,West,262,12.0,12.0,11,0.00,PR,BKN,0.00,Misterhouse,2013-04-07 01:30:00,
2013-04-06 18:40:00,60.4,32.0,30.72,WSW,242,15.0,17.0,12,0.00,PR,BKN,0.00,Misterhouse,2013-04-07 01:40:00,
2013-04-06 18:50:00,59.9,32.0,30.72,WSW,246,17.0,24.0,12,0.00,PR,BKN,0.00,Misterhouse,2013-04-07 01:50:00,
2013-04-06 18:55:00,60.1,32.0,30.72,WSW,241,19.0,19.0,12,0.00,PR,BKN,0.00,Misterhouse,2013-04-07 01:55:00,
2013-04-06 19:00:00,60.4,32.0,30.72,West,269,17.0,20.0,12,0.00,PR,BKN,0.00,Misterhouse,2013-04-07 02:00:00,
2013-04-06 19:05:00,60.3,32.0,30.72,West,270,16.0,23.0,12,0.00,PR,BKN,0.00,Misterhouse,2013-04-07 02:05:00,
2013-04-06 19:15:00,59.7,32.0,30.69,WSW,257,13.0,13.0,12,0.00,RA,OVC,0.00,Misterhouse,2013-04-07 02:15:00,
2013-04-06 19:20:00,59.4,32.0,30.69,West,259,11.0,11.0,12,0.00,RA,OVC,0.00,Misterhouse,2013-04-07 02:20:00,
2013-04-06 19:25:00,59.2,32.0,30.72,WSW,254,9.0,9.0,12,0.00,RA,OVC,0.00,Misterhouse,2013-04-07 02:25:00,
2013-04-06 19:30:00,58.8,32.0,30.72,SSW,201,14.0,14.0,12,0.00,RA,OVC,0.00,Misterhouse,2013-04-07 02:30:00,
2013-04-06 19:35:00,58.8,32.0,30.72,WSW,241,12.0,12.0,12,0.00,RA,OVC,0.00,Misterhouse,2013-04-07 02:35:00,
2013-04-06 19:40:00,58.5,32.0,30.72,SSW,199,11.0,17.0,12,0.00,RA,OVC,0.00,Misterhouse,2013-04-07 02:40:00,
2013-04-06 19:45:00,58.1,32.0,30.72,WSW,253,12.0,15.0,12,0.00,RA,OVC,0.00,Misterhouse,2013-04-07 02:45:00,
2013-04-06 19:50:00,58.1,32.0,30.72,West,277,16.0,19.0,12,0.00,RA,OVC,0.00,Misterhouse,2013-04-07 02:50:00,
2013-04-06 20:00:00,57.9,32.0,30.72,West,259,12.0,12.0,12,0.00,RA,OVC,0.00,Misterhouse,2013-04-07 03:00:00,
2013-04-06 20:10:00,57.9,32.0,30.72,West,265,10.0,12.0,12,0.00,RA,OVC,0.00,Misterhouse,2013-04-07 03:10:00,
2013-04-06 20:15:00,57.9,32.0,30.72,West,266,11.0,17.0,12,0.00,RA,OVC,0.00,Misterhouse,2013-04-07 03:15:00,
2013-04-06 20:20:00,57.9,32.0,30.72,West,260,15.0,17.0,12,0.00,RA,OVC,0.00,Misterhouse,2013-04-07 03:20:00,
2013-04-06 20:30:00,57.4,32.0,30.72,WSW,241,17.0,20.0,12,0.00,RA,OVC,0.00,Misterhouse,2013-04-07 03:30:00,
2013-04-06 20:40:00,57.0,32.0,30.72,WSW,257,21.0,26.0,12,0.00,RA,OVC,0.00,Misterhouse,2013-04-07 03:40:00,
2013-04-06 20:50:00,56.7,32.0,30.72,WSW,244,13.0,21.0,12,0.00,RA,OVC,0.00,Misterhouse,2013-04-07 03:50:00,
2013-04-06 20:55:00,56.7,32.0,30.72,SW,227,12.0,12.0,12,0.00,RA,OVC,0.00,Misterhouse,2013-04-07 03:55:00,
2013-04-06 21:00:00,56.5,32.0,30.72,WSW,255,13.0,13.0,12,0.00,RA,OVC,0.00,Misterhouse,2013-04-07 04:00:00,
2013-04-06 21:05:00,55.9,32.0,30.72,SW,229,9.0,10.0,12,0.00,RA,OVC,0.00,Misterhouse,2013-04-07 04:05:00,
2013-04-06 21:10:00,55.9,32.0,30.72,WSW,254,9.0,15.0,12,0.00,RA,OVC,0.00,Misterhouse,2013-04-07 04:10:00,
2013-04-06 21:20:00,55.9,32.0,30.72,West,260,12.0,14.0,12,0.00,RA,OVC,0.00,Misterhouse,2013-04-07 04:20:00,
2013-04-06 21:25:00,56.3,32.0,30.75,West,263,14.0,14.0,12,0.00,BC,SCT,0.00,Misterhouse,2013-04-07 04:25:00,
2013-04-06 21:30:00,56.5,32.0,30.75,West,275,15.0,15.0,12,0.00,BC,SCT,0.00,Misterhouse,2013-04-07 04:30:00,
2013-04-06 21:35:00,56.7,32.0,30.75,SW,222,7.0,9.0,12,0.00,BC,SCT,0.00,Misterhouse,2013-04-07 04:35:00,
2013-04-06 21:40:00,56.3,32.0,30.75,WSW,237,10.0,11.0,12,0.00,BC,SCT,0.00,Misterhouse,2013-04-07 04:40:00,
2013-04-06 21:45:00,56.3,32.0,30.75,West,270,13.0,13.0,12,0.00,BC,SCT,0.00,Misterhouse,2013-04-07 04:45:00,
2013-04-06 21:50:00,56.1,32.0,30.75,South,189,12.0,13.0,15,0.00,BC,SCT,0.00,Misterhouse,2013-04-07 04:50:00,
2013-04-06 21:55:00,56.7,32.0,30.72,South,183,12.0,15.0,12,0.00,BC,SCT,0.00,Misterhouse,2013-04-07 04:55:00,
2013-04-06 22:00:00,56.7,32.0,30.72,WSW,243,15.0,15.0,12,0.00,BC,SCT,0.00,Misterhouse,2013-04-07 05:00:00,
2013-04-06 22:10:00,56.7,32.0,30.72,SW,226,17.0,17.0,15,0.00,BC,SCT,0.00,Misterhouse,2013-04-07 05:10:00,
2013-04-06 22:15:00,56.8,32.0,30.72,WSW,246,16.0,16.0,12,0.00,BC,SCT,0.00,Misterhouse,2013-04-07 05:15:00,
2013-04-06 22:20:00,56.8,32.0,30.72,WSW,258,15.0,15.0,15,0.00,BC,SCT,0.00,Misterhouse,2013-04-07 05:20:00,
2013-04-06 22:25:00,56.8,32.0,30.75,WNW,290,15.0,15.0,15,0.00,BC,SCT,0.00,Misterhouse,2013-04-07 05:25:00,
2013-04-06 22:30:00,56.8,32.0,30.75,WSW,253,13.0,15.0,15,0.00,BC,SCT,0.00,Misterhouse,2013-04-07 05:30:00,
2013-04-06 22:40:00,57.0,32.0,30.75,WNW,288,15.0,17.0,15,0.00,BC,SCT,0.00,Misterhouse,2013-04-07 05:40:00,
2013-04-06 22:45:00,56.5,32.0,30.75,West,262,17.0,19.0,15,0.00,BC,SCT,0.00,Misterhouse,2013-04-07 05:45:00,
2013-04-06 22:55:00,56.3,32.0,30.72,WSW,253,11.0,11.0,15,0.00,BC,SCT,0.00,Misterhouse,2013-04-07 05:55:00,
2013-04-06 23:00:00,56.7,32.0,30.72,WSW,253,13.0,16.0,15,0.00,BC,SCT,0.00,Misterhouse,2013-04-07 06:00:00,
2013-04-06 23:10:00,56.3,32.0,30.72,WSW,251,14.0,15.0,15,0.00,BC,SCT,0.00,Misterhouse,2013-04-07 06:10:00,
2013-04-06 23:20:00,56.3,32.0,30.72,WSW,242,15.0,15.0,15,0.00,BC,SCT,0.00,Misterhouse,2013-04-07 06:20:00,
2013-04-06 23:25:00,56.3,32.0,30.72,WSW,238,12.0,12.0,15,0.00,BC,SCT,0.00,Misterhouse,2013-04-07 06:25:00,
2013-04-06 23:30:00,56.1,32.0,30.72,WNW,292,12.0,15.0,15,0.00,BC,SCT,0.00,Misterhouse,2013-04-07 06:30:00,
2013-04-06 23:35:00,56.1,32.0,30.72,West,277,16.0,16.0,17,0.00,BC,SCT,0.00,Misterhouse,2013-04-07 06:35:00,
2013-04-06 23:40:00,56.1,32.0,30.72,West,264,14.0,18.0,17,0.00,BC,SCT,0.00,Misterhouse,2013-04-07 06:40:00,
2013-04-06 23:45:00,56.3,32.0,30.72,WSW,246,14.0,15.0,17,0.00,BC,SCT,0.00,Misterhouse,2013-04-07 06:45:00,
2013-04-06 23:50:00,55.9,32.0,30.72,South,182,11.0,11.0,17,0.00,BC,SCT,0.00,Misterhouse,2013-04-07 06:50:00,